createdAt,value
2022-12-04T00:00:33.722Z,52.40
2022-12-04T00:03:00.613Z,56.13
2022-12-04T00:05:27.586Z,54.53
2022-12-04T00:07:54.560Z,54.13
2022-12-04T00:10:21.553Z,50.70
2022-12-04T00:12:48.411Z,51.73
2022-12-04T00:15:25.269Z,63.30
2022-12-04T00:17:53.447Z,50.67
2022-12-04T00:20:20.494Z,57.30
2022-12-04T00:22:47.384Z,53.90
2022-12-04T00:25:14.278Z,55.73
2022-12-04T00:27:41.171Z,54.57
2022-12-04T00:30:08.789Z,51.77
2022-12-04T00:32:35.999Z,53.00
2022-12-04T00:35:03.007Z,55.37
2022-12-04T00:37:29.977Z,54.50
2022-12-04T00:39:57.159Z,56.77
2022-12-04T00:42:24.269Z,55.77
2022-12-04T00:44:51.202Z,52.67
2022-12-04T00:47:18.161Z,54.33
2022-12-04T00:49:45.047Z,57.73
2022-12-04T00:52:13.899Z,52.97
2022-12-04T00:54:40.797Z,54.43
2022-12-04T00:57:08.015Z,51.83
2022-12-04T00:59:34.932Z,54.67
2022-12-04T01:02:01.799Z,50.63
2022-12-04T01:04:28.784Z,57.40
2022-12-04T01:06:58.064Z,61.27
2022-12-04T01:09:28.531Z,57.57
2022-12-04T01:11:55.394Z,56.10
2022-12-04T01:14:23.271Z,57.63
2022-12-04T01:16:50.233Z,53.70
2022-12-04T01:19:17.154Z,53.60
2022-12-04T01:21:43.998Z,54.93
2022-12-04T01:24:10.951Z,52.73
2022-12-04T01:26:37.850Z,53.67
2022-12-04T01:29:04.904Z,47.00
2022-12-04T01:31:31.972Z,53.57
2022-12-04T01:34:02.058Z,51.47
2022-12-04T01:36:29.103Z,52.00
2022-12-04T01:38:56.792Z,49.23
2022-12-04T01:41:27.889Z,53.57
2022-12-04T01:44:19.045Z,43.67
2022-12-04T01:46:50.818Z,46.23
2022-12-04T01:49:23.766Z,38.50
2022-12-04T01:51:56.249Z,44.07
2022-12-04T01:54:28.806Z,38.43
2022-12-04T01:57:01.858Z,40.67
2022-12-04T01:59:36.650Z,45.83
2022-12-04T02:02:16.048Z,52.40
2022-12-04T02:04:43.930Z,53.40
2022-12-04T02:07:11.275Z,51.33
2022-12-04T02:09:39.688Z,49.77
2022-12-04T02:12:36.965Z,47.37
2022-12-04T02:15:15.916Z,48.70
2022-12-04T02:17:51.679Z,46.30
2022-12-04T02:20:33.731Z,52.87
2022-12-04T02:23:18.799Z,47.90
2022-12-04T02:26:18.941Z,49.80
2022-12-04T02:29:04.897Z,48.53
2022-12-04T02:31:43.067Z,50.40
2022-12-04T02:34:25.781Z,48.60
2022-12-04T02:37:14.386Z,46.67
2022-12-04T02:39:48.679Z,46.23
2022-12-04T02:42:25.729Z,52.87
2022-12-04T02:45:08.405Z,44.77
2022-12-04T02:47:37.051Z,53.23
2022-12-04T02:50:09.425Z,51.47
2022-12-04T02:52:41.006Z,54.23
2022-12-04T02:55:24.679Z,49.90
2022-12-04T02:57:55.902Z,48.27
2022-12-04T03:00:22.846Z,47.63
2022-12-04T03:03:07.624Z,59.17
2022-12-04T03:05:41.281Z,52.03
2022-12-04T03:08:14.477Z,54.77
2022-12-04T03:10:48.895Z,58.57
2022-12-04T03:13:30.744Z,55.27
2022-12-04T03:16:07.122Z,55.20
2022-12-04T03:18:39.568Z,52.63
2022-12-04T03:21:12.164Z,55.43
2022-12-04T03:23:48.802Z,53.03
2022-12-04T03:26:15.582Z,58.30
2022-12-04T03:28:58.870Z,55.33
2022-12-04T03:32:01.305Z,56.60
2022-12-04T03:34:51.654Z,56.13
2022-12-04T03:37:24.186Z,59.20
2022-12-04T03:40:07.977Z,59.03
2022-12-04T03:42:48.054Z,56.73
2022-12-04T03:45:38.316Z,60.03
2022-12-04T03:48:23.396Z,57.90
2022-12-04T03:51:10.803Z,60.37
2022-12-04T03:53:42.935Z,60.93
2022-12-04T03:56:17.223Z,63.17
2022-12-04T03:58:49.019Z,57.83
2022-12-04T04:01:20.425Z,62.37
2022-12-04T04:03:51.976Z,61.77
2022-12-04T04:06:30.717Z,66.20
2022-12-04T04:09:02.659Z,63.70
2022-12-04T04:11:36.130Z,70.53
2022-12-04T04:14:26.362Z,63.87
2022-12-04T04:17:20.761Z,65.27
2022-12-04T04:20:12.677Z,60.20
2022-12-04T04:22:59.686Z,64.53
2022-12-04T04:25:28.430Z,65.00
2022-12-04T04:27:58.562Z,69.57
2022-12-04T04:30:27.516Z,65.07
2022-12-04T04:33:16.315Z,68.50
2022-12-04T04:36:17.848Z,62.93
2022-12-04T04:39:02.464Z,61.20
2022-12-04T04:41:48.266Z,66.63
2022-12-04T04:44:46.530Z,61.30
2022-12-04T04:47:20.277Z,61.30
2022-12-04T04:49:49.698Z,60.53
2022-12-04T04:52:20.309Z,58.77
2022-12-04T04:54:47.710Z,68.00
2022-12-04T04:57:25.167Z,65.67
2022-12-04T04:59:52.098Z,66.63
2022-12-04T05:02:19.046Z,62.27
2022-12-04T05:04:45.897Z,61.40
2022-12-04T05:07:12.786Z,63.03
2022-12-04T05:09:41.460Z,59.03
2022-12-04T05:12:09.196Z,63.30
2022-12-04T05:14:36.060Z,63.77
2022-12-04T05:17:12.169Z,62.30
2022-12-04T05:19:56.573Z,62.00
2022-12-04T05:22:28.785Z,61.33
2022-12-04T05:24:56.035Z,66.37
2022-12-04T05:27:24.762Z,61.90
2022-12-04T05:29:56.248Z,62.30
2022-12-04T05:32:24.947Z,63.50
2022-12-04T05:34:53.338Z,71.47
2022-12-04T05:37:20.758Z,61.27
2022-12-04T05:39:47.842Z,60.43
2022-12-04T05:42:15.065Z,59.33
2022-12-04T05:44:41.934Z,58.47
2022-12-04T05:47:10.015Z,61.17
2022-12-04T05:49:37.369Z,67.83
2022-12-04T05:52:05.679Z,64.37
2022-12-04T05:54:32.683Z,67.47
2022-12-04T05:56:59.820Z,62.80
2022-12-04T05:59:26.769Z,59.17
2022-12-04T06:01:53.915Z,62.57
2022-12-04T06:04:21.188Z,61.60
2022-12-04T06:06:48.224Z,61.67
2022-12-04T06:09:15.091Z,64.80
2022-12-04T06:11:43.182Z,64.60
2022-12-04T06:14:13.431Z,64.87
2022-12-04T06:16:43.467Z,61.33
2022-12-04T06:19:14.417Z,61.97
2022-12-04T06:21:42.905Z,64.67
2022-12-04T06:24:14.255Z,57.37
2022-12-04T06:27:03.851Z,64.10
2022-12-04T06:29:28.416Z,65.73
2022-12-04T06:31:55.324Z,73.10
2022-12-04T06:34:22.291Z,65.63
2022-12-04T06:36:49.230Z,68.23
2022-12-04T06:39:19.019Z,62.47
2022-12-04T06:41:47.642Z,65.43
2022-12-04T06:44:17.777Z,61.87
2022-12-04T06:46:47.256Z,66.57
2022-12-04T06:49:14.950Z,62.67
2022-12-04T06:51:42.004Z,69.73
2022-12-04T06:54:10.455Z,65.60
2022-12-04T06:56:37.438Z,65.47
2022-12-04T06:59:05.115Z,61.87
2022-12-04T07:01:34.410Z,64.17
2022-12-04T07:04:04.107Z,65.57
2022-12-04T07:06:37.757Z,66.90
2022-12-04T07:09:15.118Z,61.50
2022-12-04T07:11:43.251Z,70.33
2022-12-04T07:14:11.951Z,67.63
2022-12-04T07:16:41.414Z,65.57
2022-12-04T07:19:10.838Z,67.20
2022-12-04T07:21:37.797Z,70.40
2022-12-04T07:24:05.185Z,64.37
2022-12-04T07:26:32.295Z,66.03
2022-12-04T07:28:59.814Z,69.93
2022-12-04T07:31:28.535Z,66.80
2022-12-04T07:33:55.656Z,70.40
2022-12-04T07:36:23.546Z,62.73
2022-12-04T07:38:51.478Z,67.93
2022-12-04T07:41:19.297Z,61.93
2022-12-04T07:43:46.905Z,66.23
2022-12-04T07:46:20.463Z,71.67
2022-12-04T07:48:47.505Z,64.53
2022-12-04T07:51:20.201Z,69.33
2022-12-04T07:53:47.678Z,69.80
2022-12-04T07:56:15.531Z,65.33
2022-12-04T07:58:42.800Z,70.00
2022-12-04T08:01:12.526Z,65.10
2022-12-04T08:03:47.205Z,65.63
2022-12-04T08:06:15.389Z,66.43
2022-12-04T08:08:42.457Z,68.67
2022-12-04T08:11:14.140Z,64.27
2022-12-04T08:13:43.133Z,69.00
2022-12-04T08:16:11.367Z,68.00
2022-12-04T08:18:39.966Z,67.83
2022-12-04T08:21:15.871Z,68.70
2022-12-04T08:23:45.197Z,68.57
2022-12-04T08:26:15.331Z,59.17
2022-12-04T08:28:42.345Z,66.80
2022-12-04T08:31:13.856Z,63.70
2022-12-04T08:33:42.003Z,63.27
2022-12-04T08:36:11.430Z,72.07
2022-12-04T08:38:39.206Z,65.93
2022-12-04T08:41:12.674Z,68.97
2022-12-04T08:43:43.056Z,62.40
2022-12-04T08:46:18.001Z,63.30
2022-12-04T08:48:48.277Z,65.43
2022-12-04T08:51:21.032Z,67.07
2022-12-04T08:53:59.399Z,62.60
2022-12-04T08:56:31.032Z,64.03
2022-12-04T08:59:00.169Z,64.57
2022-12-04T09:01:30.679Z,64.00
2022-12-04T09:03:59.888Z,64.47
2022-12-04T09:06:28.867Z,65.33
2022-12-04T09:08:57.351Z,64.07
2022-12-04T09:11:28.184Z,62.23
2022-12-04T09:13:56.011Z,59.70
2022-12-04T09:16:24.688Z,63.73
2022-12-04T09:18:55.625Z,59.40
2022-12-04T09:21:24.755Z,62.90
2022-12-04T09:23:54.938Z,61.47
2022-12-04T09:26:28.476Z,58.07
2022-12-04T09:28:56.308Z,56.17
2022-12-04T09:31:26.973Z,61.07
2022-12-04T09:33:54.632Z,60.43
2022-12-04T09:36:21.990Z,60.00
2022-12-04T09:38:51.886Z,67.03
2022-12-04T09:41:44.385Z,62.27
2022-12-04T09:44:29.733Z,62.43
2022-12-04T09:47:15.055Z,64.03
2022-12-04T09:50:00.191Z,62.37
2022-12-04T09:52:40.328Z,58.87
2022-12-04T09:55:42.926Z,61.03
2022-12-04T09:58:46.909Z,61.10
2022-12-04T10:01:24.464Z,62.47
2022-12-04T10:03:57.728Z,61.23
2022-12-04T10:06:41.204Z,63.13
2022-12-04T10:09:19.753Z,65.47
2022-12-04T10:12:07.206Z,61.53
2022-12-04T10:15:15.839Z,66.50
2022-12-04T10:17:59.695Z,66.10
2022-12-04T10:20:58.019Z,62.63
2022-12-04T10:24:10.123Z,62.37
2022-12-04T10:26:45.157Z,60.23
2022-12-04T10:29:26.049Z,66.03
2022-12-04T10:31:55.871Z,59.87
2022-12-04T10:34:31.295Z,61.77
2022-12-04T10:37:11.618Z,62.77
2022-12-04T10:39:49.374Z,68.40
2022-12-04T10:42:36.089Z,71.30
2022-12-04T10:45:07.284Z,66.33
2022-12-04T10:47:35.406Z,67.10
2022-12-04T10:50:21.830Z,59.47
2022-12-04T10:52:49.425Z,62.80
2022-12-04T10:55:32.891Z,64.97
2022-12-04T10:58:03.106Z,64.40
2022-12-04T11:00:35.451Z,60.23
2022-12-04T11:03:09.338Z,62.23
2022-12-04T11:05:55.493Z,60.20
2022-12-04T11:08:36.690Z,67.90
2022-12-04T11:11:13.648Z,66.47
2022-12-04T11:13:42.621Z,63.47
2022-12-04T11:16:33.375Z,65.80
2022-12-04T11:19:19.988Z,60.87
2022-12-04T11:21:50.379Z,60.57
2022-12-04T11:24:24.289Z,67.27
2022-12-04T11:26:55.139Z,66.77
2022-12-04T11:29:31.321Z,63.70
2022-12-04T11:32:06.948Z,58.53
2022-12-04T11:34:40.767Z,62.07
2022-12-04T11:37:20.783Z,63.87
2022-12-04T11:39:51.075Z,60.17
2022-12-04T11:42:36.651Z,61.00
2022-12-04T11:45:20.960Z,62.83
2022-12-04T11:47:56.383Z,64.00
2022-12-04T11:50:53.121Z,61.33
2022-12-04T11:53:45.930Z,62.40
2022-12-04T11:56:35.109Z,56.63
2022-12-04T11:59:13.232Z,59.07
2022-12-04T12:02:05.033Z,62.50
2022-12-04T12:04:43.175Z,52.70
2022-12-04T12:07:37.968Z,55.43
2022-12-04T12:10:05.193Z,54.23
2022-12-04T12:13:13.962Z,53.73
2022-12-04T12:15:55.829Z,52.87
2022-12-04T12:18:42.189Z,49.53
2022-12-04T12:21:23.994Z,53.80
2022-12-04T12:24:30.432Z,55.93
2022-12-04T12:27:34.800Z,55.00
2022-12-04T12:30:10.634Z,59.70
2022-12-04T12:33:10.756Z,47.93
2022-12-04T12:35:54.310Z,48.33
2022-12-04T12:38:40.061Z,51.33
2022-12-04T12:41:18.183Z,42.23
2022-12-04T12:44:02.958Z,41.07
2022-12-04T12:46:44.166Z,40.07
2022-12-04T12:49:35.862Z,34.60
2022-12-04T12:52:30.840Z,34.70
2022-12-04T12:55:21.399Z,32.33
2022-12-04T12:58:00.179Z,28.23
2022-12-04T13:00:32.622Z,32.37
2022-12-04T13:03:33.665Z,29.00
2022-12-04T13:06:07.485Z,31.10
2022-12-04T13:09:02.001Z,26.57
2022-12-04T13:11:31.004Z,27.57
2022-12-04T13:14:03.320Z,27.97
2022-12-04T13:16:36.151Z,28.23
2022-12-04T13:19:09.237Z,26.77
2022-12-04T13:21:55.277Z,28.67
2022-12-04T13:24:41.225Z,30.67
2022-12-04T13:27:17.130Z,29.93
2022-12-04T13:30:09.082Z,31.77
2022-12-04T13:33:07.064Z,33.63
2022-12-04T13:36:02.917Z,28.67
2022-12-04T13:38:46.398Z,32.23
2022-12-04T13:41:20.939Z,29.83
2022-12-04T13:43:55.222Z,33.73
2022-12-04T13:46:40.298Z,36.17
2022-12-04T13:49:28.866Z,34.10
2022-12-04T13:52:00.531Z,30.63
2022-12-04T13:54:37.386Z,33.17
2022-12-04T13:57:16.491Z,36.83
2022-12-04T13:59:44.066Z,31.07
2022-12-04T14:02:35.353Z,25.37
2022-12-04T14:05:09.215Z,25.53
2022-12-04T14:07:42.786Z,31.50
2022-12-04T14:10:19.087Z,28.30
2022-12-04T14:13:00.358Z,25.27
2022-12-04T14:15:35.146Z,27.53
2022-12-04T14:18:05.130Z,29.70
2022-12-04T14:20:33.542Z,30.17
2022-12-04T14:23:22.739Z,24.13
2022-12-04T14:25:51.591Z,30.97
2022-12-04T14:28:25.063Z,26.80
2022-12-04T14:31:10.559Z,25.67
2022-12-04T14:33:52.630Z,29.17
2022-12-04T14:36:43.484Z,32.70
2022-12-04T14:39:34.796Z,29.50
2022-12-04T14:42:18.226Z,29.33
2022-12-04T14:44:51.571Z,33.07
2022-12-04T14:47:29.271Z,27.77
2022-12-04T14:50:32.523Z,31.37
2022-12-04T14:53:22.367Z,36.17
2022-12-04T14:56:30.043Z,36.07
2022-12-04T14:58:58.506Z,34.43
2022-12-04T15:01:37.297Z,36.63
2022-12-04T15:04:30.822Z,41.20
2022-12-04T15:07:01.234Z,33.47
2022-12-04T15:09:47.521Z,33.73
2022-12-04T15:12:33.896Z,35.03
2022-12-04T15:15:12.945Z,37.13
2022-12-04T15:17:41.973Z,38.70
2022-12-04T15:20:17.013Z,41.23
2022-12-04T15:22:46.002Z,36.07
2022-12-04T15:25:19.744Z,35.63
2022-12-04T15:27:49.375Z,41.37
2022-12-04T15:30:19.630Z,38.17
2022-12-04T15:32:49.814Z,42.07
2022-12-04T15:35:29.681Z,37.57
2022-12-04T15:38:00.590Z,38.00
2022-12-04T15:40:30.126Z,39.80
2022-12-04T15:43:17.069Z,41.57
2022-12-04T15:45:45.106Z,41.30
2022-12-04T15:48:25.056Z,36.17
2022-12-04T15:51:05.158Z,39.70
2022-12-04T15:53:37.284Z,41.43
2022-12-04T15:56:16.440Z,42.97
2022-12-04T15:58:58.164Z,47.17
2022-12-04T16:01:28.046Z,41.90
2022-12-04T16:03:56.281Z,41.73
2022-12-04T16:06:29.339Z,43.97
2022-12-04T16:09:12.591Z,40.63
2022-12-04T16:11:42.974Z,46.17
2022-12-04T16:14:12.945Z,42.70
2022-12-04T16:16:50.118Z,38.97
2022-12-04T16:19:31.605Z,42.20
2022-12-04T16:22:04.617Z,46.07
2022-12-04T16:24:34.684Z,41.20
2022-12-04T16:27:14.711Z,47.70
2022-12-04T16:29:41.713Z,40.60
2022-12-04T16:32:12.833Z,46.00
2022-12-04T16:34:42.934Z,42.93
2022-12-04T16:37:14.918Z,43.23
2022-12-04T16:39:41.914Z,47.47
2022-12-04T16:42:24.693Z,40.97
2022-12-04T16:44:53.484Z,38.37
2022-12-04T16:47:23.552Z,39.83
2022-12-04T16:49:53.641Z,38.80
2022-12-04T16:52:22.635Z,40.70
2022-12-04T16:54:50.605Z,37.80
2022-12-04T16:57:17.500Z,38.37
2022-12-04T16:59:44.467Z,37.03
2022-12-04T17:02:21.365Z,39.03
2022-12-04T17:04:51.534Z,41.77
2022-12-04T17:07:28.660Z,37.30
2022-12-04T17:09:58.781Z,35.63
2022-12-04T17:12:28.962Z,33.87
2022-12-04T17:14:59.170Z,35.53
2022-12-04T17:17:26.554Z,33.57
2022-12-04T17:19:56.520Z,34.90
2022-12-04T17:22:28.709Z,39.20
2022-12-04T17:24:59.202Z,32.37
2022-12-04T17:27:28.407Z,35.30
2022-12-04T17:29:56.128Z,35.97
2022-12-04T17:32:24.248Z,33.80
2022-12-04T17:34:52.530Z,31.73
2022-12-04T17:37:20.562Z,33.23
2022-12-04T17:39:50.583Z,35.40
2022-12-04T17:42:20.195Z,33.47
2022-12-04T17:44:50.334Z,33.43
2022-12-04T17:47:23.537Z,33.90
2022-12-04T17:49:53.531Z,34.03
2022-12-04T17:52:23.475Z,37.77
2022-12-04T17:54:51.529Z,32.27
2022-12-04T17:57:22.526Z,37.17
2022-12-04T17:59:51.873Z,37.83
2022-12-04T18:02:18.920Z,36.47
2022-12-04T18:04:48.898Z,38.43
2022-12-04T18:07:17.906Z,30.33
2022-12-04T18:09:47.940Z,33.97
2022-12-04T18:12:17.886Z,31.30
2022-12-04T18:14:45.892Z,30.57
2022-12-04T18:17:17.827Z,27.90
2022-12-04T18:19:45.814Z,28.20
2022-12-04T18:22:15.857Z,28.23
2022-12-04T18:24:45.965Z,29.87
2022-12-04T18:27:15.962Z,28.87
2022-12-04T18:29:44.998Z,26.67
2022-12-04T18:32:14.996Z,28.13
2022-12-04T18:34:42.039Z,29.33
2022-12-04T18:37:12.029Z,27.60
2022-12-04T18:39:42.088Z,30.87
2022-12-04T18:42:09.012Z,33.87
2022-12-04T18:44:36.972Z,34.53
2022-12-04T18:47:07.646Z,35.53
2022-12-04T18:49:38.018Z,33.77
2022-12-04T18:52:07.904Z,34.07
2022-12-04T18:54:37.910Z,35.40
2022-12-04T18:57:05.855Z,29.37
2022-12-04T18:59:33.851Z,30.10
2022-12-04T19:02:00.865Z,26.87
2022-12-04T19:04:31.886Z,32.97
2022-12-04T19:07:01.943Z,28.90
2022-12-04T19:10:09.009Z,28.37
2022-12-04T19:12:20.936Z,29.40
2022-12-04T19:14:54.125Z,29.37
2022-12-04T19:17:24.290Z,27.87
2022-12-04T19:19:51.282Z,29.93
2022-12-04T19:22:20.253Z,28.10
2022-12-04T19:24:50.302Z,29.00
2022-12-04T19:27:18.156Z,32.43
2022-12-04T19:29:47.930Z,26.67
2022-12-04T19:32:18.007Z,28.67
2022-12-04T19:34:49.351Z,24.30
2022-12-04T19:37:18.791Z,27.43
2022-12-04T19:39:48.305Z,26.87
2022-12-04T19:42:18.370Z,26.87
2022-12-04T19:44:49.674Z,28.67
2022-12-04T19:47:19.998Z,27.50
2022-12-04T19:49:48.229Z,27.83
2022-12-04T19:52:18.283Z,25.70
2022-12-04T19:54:48.333Z,26.03
2022-12-04T19:57:18.307Z,29.50
2022-12-04T19:59:46.988Z,27.77
2022-12-04T20:02:17.293Z,26.03
2022-12-04T20:04:46.325Z,25.17
2022-12-04T20:07:16.348Z,25.23
2022-12-04T20:09:52.164Z,27.37
2022-12-04T20:12:25.719Z,27.53
2022-12-04T20:14:55.619Z,26.43
2022-12-04T20:17:25.035Z,25.73
2022-12-04T20:19:54.218Z,26.97
2022-12-04T20:22:24.617Z,26.70
2022-12-04T20:24:51.591Z,26.80
2022-12-04T20:27:21.588Z,26.40
2022-12-04T20:29:50.611Z,27.93
2022-12-04T20:32:17.463Z,25.70
2022-12-04T20:34:47.514Z,32.63
2022-12-04T20:37:17.557Z,31.83
2022-12-04T20:39:47.579Z,27.60
2022-12-04T20:42:15.889Z,25.13
2022-12-04T20:44:44.803Z,24.97
2022-12-04T20:47:13.766Z,29.20
2022-12-04T20:49:43.752Z,29.80
2022-12-04T20:52:11.249Z,27.33
2022-12-04T20:54:41.551Z,29.97
2022-12-04T20:57:09.365Z,31.67
2022-12-04T20:59:36.363Z,28.47
2022-12-04T21:02:03.334Z,26.97
2022-12-04T21:04:30.187Z,30.17
2022-12-04T21:06:57.772Z,33.87
2022-12-04T21:09:25.149Z,29.63
2022-12-04T21:11:54.552Z,33.57
2022-12-04T21:14:47.024Z,29.00
2022-12-04T21:17:18.866Z,32.23
2022-12-04T21:19:47.458Z,34.37
2022-12-04T21:22:14.900Z,35.00
2022-12-04T21:24:42.347Z,34.93
2022-12-04T21:27:12.424Z,39.43
2022-12-04T21:29:43.751Z,36.10
2022-12-04T21:32:10.595Z,38.77
2022-12-04T21:34:37.555Z,39.10
2022-12-04T21:37:04.502Z,34.97
2022-12-04T21:39:31.443Z,38.37
2022-12-04T21:42:17.042Z,35.50
2022-12-04T21:44:44.042Z,37.20
2022-12-04T21:47:10.949Z,36.50
2022-12-04T21:49:37.912Z,44.13
2022-12-04T21:52:04.870Z,43.70
2022-12-04T21:54:31.831Z,41.40
2022-12-04T21:56:58.881Z,42.37
2022-12-04T21:59:26.470Z,43.43
2022-12-04T22:01:54.736Z,41.40
2022-12-04T22:04:22.690Z,37.03
2022-12-04T22:06:49.972Z,42.27
2022-12-04T22:09:17.088Z,41.23
2022-12-04T22:11:45.768Z,45.40
2022-12-04T22:14:13.732Z,45.27
2022-12-04T22:16:43.469Z,41.70
2022-12-04T22:19:12.133Z,49.00
2022-12-04T22:21:39.841Z,43.17
2022-12-04T22:24:07.377Z,45.83
2022-12-04T22:26:34.311Z,40.13
2022-12-04T22:29:01.190Z,45.80
2022-12-04T22:31:30.151Z,47.40
2022-12-04T22:33:59.503Z,45.40
2022-12-04T22:36:31.727Z,41.27
2022-12-04T22:39:16.217Z,43.30
2022-12-04T22:41:43.218Z,44.07
2022-12-04T22:44:11.153Z,44.93
2022-12-04T22:46:41.327Z,43.13
2022-12-04T22:49:10.502Z,48.87
2022-12-04T22:51:38.355Z,41.20
2022-12-04T22:54:08.079Z,42.40
2022-12-04T22:56:36.052Z,48.40
2022-12-04T22:59:13.415Z,44.03
2022-12-04T23:01:42.440Z,50.40
2022-12-04T23:04:10.315Z,49.07
2022-12-04T23:06:40.403Z,52.97
2022-12-04T23:09:13.001Z,45.97
2022-12-04T23:11:43.122Z,47.17
2022-12-04T23:14:15.045Z,49.87
2022-12-04T23:16:45.126Z,48.97
2022-12-04T23:19:18.311Z,49.07
2022-12-04T23:21:53.571Z,45.27
2022-12-04T23:24:25.903Z,41.00
2022-12-04T23:26:58.876Z,45.00
2022-12-04T23:29:52.295Z,45.10
2022-12-04T23:32:18.973Z,41.93
2022-12-04T23:34:47.958Z,39.03
2022-12-04T23:37:20.891Z,43.33
2022-12-04T23:39:48.961Z,40.43
2022-12-04T23:42:19.021Z,36.87
2022-12-04T23:44:48.982Z,46.17
2022-12-04T23:47:19.283Z,50.43
2022-12-04T23:49:46.500Z,49.17
2022-12-04T23:52:14.477Z,48.83
2022-12-04T23:54:42.469Z,44.30
2022-12-04T23:57:12.496Z,49.93
2022-12-04T23:59:45.662Z,43.47
